Time;durP1;ratioP1;P1;durP2;ratioP2;P2;SDS_P1;SDS_P2;PMS_P1;PMS_P2;Temp;Humidity;BMP_temperature;BMP_pressure;BME280_temperature;BME280_humidity;BME280_pressure;Samples;Min_cycle;Max_cycle;Signal;HPM_P1;HPM_P2
2021/12/23 00:02:03;;;;;;;;;;;;;;;-1.28;79.04;101092.67;1684481;83;20168;-80
2021/12/23 00:04:28;;;;;;;;;;;;;;;-1.15;79.12;101086.56;1665621;83;20197;-81
2021/12/23 00:06:54;;;;;;;;;;;;;;;-1.10;78.83;101085.50;1696328;83;20152;-79
2021/12/23 00:09:21;;;;;;;;;;;;;;;-1.07;78.63;101076.78;1680077;83;21084;-81
2021/12/23 00:11:47;;;;;;;;;;;;;;;-1.16;78.64;101077.96;1696600;83;20202;-81
2021/12/23 00:14:13;;;;;;;;;;;;;;;-1.11;79.03;101071.30;1693802;83;20172;-80
2021/12/23 00:16:43;;;;;;;;;;;;;;;-1.09;78.82;101068.19;1693688;83;20212;-81
2021/12/23 00:19:20;;;;;;;;;;;;;;;-1.12;78.95;101061.40;1689495;83;20621;-80
2021/12/23 00:24:21;;;;;;;;;;;;;;;-0.94;78.68;101056.40;1701587;83;20157;-81
2021/12/23 00:26:47;;;;;;;;;;;;;;;-1.12;78.99;101051.46;1706575;83;20140;-80
2021/12/23 00:29:12;;;;;;;;;;;;;;;-1.09;78.92;101049.62;1689632;83;20495;-81
2021/12/23 00:31:38;;;;;;;;;;;;;;;-1.02;78.79;101048.09;1683340;83;20402;-80
2021/12/23 00:34:04;;;;;;;;;;;;;;;-1.20;78.88;101053.05;1686281;83;21191;-80
2021/12/23 00:36:29;;;;;;;;;;;;;;;-1.25;79.25;101051.09;1684112;83;20478;-81
2021/12/23 00:38:56;;;;;;;;;;;;;;;-1.28;79.42;101049.91;1700426;83;20172;-82
2021/12/23 00:41:23;;;;;;;;;;;;;;;-1.24;79.41;101051.50;1685381;83;20817;-81
2021/12/23 00:43:49;;;;;;;;;;;;;;;-1.28;79.60;101048.62;1689291;83;20188;-88
2021/12/23 00:46:14;;;;;;;;;;;;;;;-1.33;79.83;101041.48;1691076;83;21028;-83
2021/12/23 00:48:41;;;;;;;;;;;;;;;-1.45;80.22;101042.31;1677084;83;20338;-80
2021/12/23 00:51:07;;;;;;;;;;;;;;;-1.33;79.89;101038.89;1692815;83;20223;-82
2021/12/23 00:53:36;;;;;;;;;;;;;;;-1.37;79.78;101037.30;1689999;83;20198;-82
2021/12/23 00:56:00;;;;;;;;;;;;;;;-1.37;80.08;101036.84;1693396;83;20468;-85
2021/12/23 00:58:25;;;;;;;;;;;;;;;-1.40;80.07;101040.02;1699884;83;21171;-80
2021/12/23 01:00:51;;;;;;;;;;;;;;;-1.33;80.08;101036.30;1701759;83;20153;-82
2021/12/23 01:03:16;;;;;;;;;;;;;;;-1.45;80.37;101030.66;1686671;83;20144;-86
2021/12/23 01:05:42;;;;;;;;;;;;;;;-1.44;80.64;101028.93;1696683;83;21235;-80
2021/12/23 01:08:08;;;;;;;;;;;;;;;-1.40;80.56;101021.41;1686135;83;20176;-79
2021/12/23 01:10:34;;;;;;;;;;;;;;;-1.44;80.48;101023.75;1702354;83;21113;-80
2021/12/23 01:13:02;;;;;;;;;;;;;;;-1.62;80.90;101016.20;1696150;83;20169;-82
2021/12/23 01:15:50;;;;;;;;;;;;;;;-1.73;81.51;101019.64;1679911;83;20184;-82
2021/12/23 01:17:56;;;;;;;;;;;;;;;-1.56;81.17;101009.50;1687940;83;20258;-81
2021/12/23 01:20:28;;;;;;;;;;;;;;;-1.56;81.32;101013.38;1683835;83;20184;-79
2021/12/23 01:22:55;;;;;;;;;;;;;;;-1.56;81.20;101012.09;1681999;83;20160;-86
2021/12/23 01:25:20;;;;;;;;;;;;;;;-1.47;81.17;101007.86;1680729;83;20109;-81
2021/12/23 01:27:46;;;;;;;;;;;;;;;-1.53;81.32;100999.02;1692451;83;20932;-80
2021/12/23 01:30:13;;;;;;;;;;;;;;;-1.54;81.18;101006.42;1695934;83;20144;-79
2021/12/23 01:32:39;;;;;;;;;;;;;;;-1.50;81.24;101004.09;1689968;83;20244;-82
2021/12/23 01:35:05;;;;;;;;;;;;;;;-1.45;80.97;101007.34;1690650;83;21152;-81
2021/12/23 01:37:31;;;;;;;;;;;;;;;-1.40;81.10;101001.16;1688706;83;20621;-80
2021/12/23 01:39:56;;;;;;;;;;;;;;;-1.32;81.01;100997.38;1699321;83;21032;-80
2021/12/23 01:42:22;;;;;;;;;;;;;;;-1.34;80.66;100994.44;1701743;83;20566;-80
2021/12/23 01:44:48;;;;;;;;;;;;;;;-1.31;80.91;100986.55;1704557;83;20269;-81
2021/12/23 01:47:13;;;;;;;;;;;;;;;-1.35;80.62;100988.86;1692693;83;20624;-84
2021/12/23 01:49:39;;;;;;;;;;;;;;;-1.62;80.96;100983.83;1702410;83;20137;-82
2021/12/23 01:52:05;;;;;;;;;;;;;;;-1.77;81.98;100981.80;1699654;83;20381;-79
2021/12/23 01:54:31;;;;;;;;;;;;;;;-1.60;81.63;100984.63;1697600;83;20172;-82
2021/12/23 01:56:57;;;;;;;;;;;;;;;-1.54;81.29;100974.47;1701601;83;20152;-78
2021/12/23 01:59:23;;;;;;;;;;;;;;;-1.48;81.25;100969.89;1694692;83;21934;-82
2021/12/23 02:01:48;;;;;;;;;;;;;;;-1.47;80.88;100972.05;1700641;83;20160;-79
2021/12/23 02:04:14;;;;;;;;;;;;;;;-1.49;80.74;100969.95;1699757;83;20497;-81
2021/12/23 02:06:39;;;;;;;;;;;;;;;-1.66;80.94;100968.03;1694673;83;20502;-80
2021/12/23 02:09:05;;;;;;;;;;;;;;;-1.78;81.43;100961.55;1693536;83;20187;-80
2021/12/23 02:11:30;;;;;;;;;;;;;;;-1.87;81.90;100959.30;1701909;83;21981;-79
2021/12/23 02:13:57;;;;;;;;;;;;;;;-1.88;81.59;100953.72;1698325;83;20401;-78
2021/12/23 02:16:22;;;;;;;;;;;;;;;-1.80;81.75;100947.83;1692156;83;20353;-79
2021/12/23 02:18:48;;;;;;;;;;;;;;;-1.64;81.57;100943.74;1687885;83;20168;-77
2021/12/23 02:21:13;;;;;;;;;;;;;;;-1.67;81.33;100946.91;1696590;83;20400;-78
2021/12/23 02:23:39;;;;;;;;;;;;;;;-1.67;81.11;100941.73;1692619;83;20992;-82
2021/12/23 02:26:04;;;;;;;;;;;;;;;-1.54;81.03;100932.60;1699537;83;20231;-78
2021/12/23 02:28:30;;;;;;;;;;;;;;;-1.56;80.76;100930.96;1692315;83;20188;-78
2021/12/23 02:30:56;;;;;;;;;;;;;;;-1.61;80.46;100928.55;1694249;83;21039;-79
2021/12/23 02:33:23;;;;;;;;;;;;;;;-1.56;80.44;100925.78;1700220;83;20175;-77
2021/12/23 02:35:50;;;;;;;;;;;;;;;-1.47;80.54;100924.97;1701611;83;22380;-79
2021/12/23 02:38:15;;;;;;;;;;;;;;;-1.34;80.28;100921.89;1703482;83;20113;-79
2021/12/23 02:40:42;;;;;;;;;;;;;;;-1.36;79.43;100912.05;1703686;83;20172;-83
2021/12/23 02:43:18;;;;;;;;;;;;;;;-1.58;79.45;100912.89;1704646;83;20987;-78
2021/12/23 02:45:45;;;;;;;;;;;;;;;-1.42;79.61;100914.89;1700994;83;20225;-78
2021/12/23 02:48:15;;;;;;;;;;;;;;;-1.41;79.61;100907.05;1702793;83;22269;-77
2021/12/23 02:50:41;;;;;;;;;;;;;;;-1.58;79.13;100897.36;1695789;83;20252;-78
2021/12/23 02:53:07;;;;;;;;;;;;;;;-1.46;79.45;100889.10;1695320;83;20211;-79
2021/12/23 02:55:32;;;;;;;;;;;;;;;-1.50;79.15;100886.23;1699004;83;21551;-80
2021/12/23 02:57:58;;;;;;;;;;;;;;;-1.60;79.10;100887.95;1702045;83;20175;-78
2021/12/23 03:00:24;;;;;;;;;;;;;;;-1.77;79.56;100886.01;1699973;83;21234;-82
2021/12/23 03:02:49;;;;;;;;;;;;;;;-1.93;80.17;100876.70;1697409;83;20211;-80
2021/12/23 03:05:15;;;;;;;;;;;;;;;-1.84;80.05;100881.06;1697544;83;20183;-79
2021/12/23 03:07:40;;;;;;;;;;;;;;;-2.05;79.97;100877.99;1693006;83;20227;-79
2021/12/23 03:10:07;;;;;;;;;;;;;;;-2.29;80.64;100874.13;1696869;83;20160;-77
2021/12/23 03:12:32;;;;;;;;;;;;;;;-2.13;80.97;100881.33;1693958;83;20999;-78
2021/12/23 03:14:59;;;;;;;;;;;;;;;-2.16;80.84;100874.51;1692054;83;20557;-77
2021/12/23 03:17:25;;;;;;;;;;;;;;;-2.10;80.98;100873.45;1702009;83;20168;-77
2021/12/23 03:19:50;;;;;;;;;;;;;;;-2.22;80.88;100870.42;1692947;83;20996;-78
2021/12/23 03:22:16;;;;;;;;;;;;;;;-2.06;80.84;100873.73;1702620;83;20120;-79
2021/12/23 03:24:41;;;;;;;;;;;;;;;-2.16;80.99;100862.87;1688060;83;21024;-80
2021/12/23 03:27:07;;;;;;;;;;;;;;;-2.12;81.31;100854.56;1687400;83;20308;-77
2021/12/23 03:29:33;;;;;;;;;;;;;;;-2.20;80.83;100852.26;1705291;83;20197;-77
2021/12/23 03:31:58;;;;;;;;;;;;;;;-2.39;81.25;100849.52;1694017;83;20547;-80
2021/12/23 03:34:24;;;;;;;;;;;;;;;-2.28;81.20;100846.08;1696776;83;20290;-77
2021/12/23 03:36:50;;;;;;;;;;;;;;;-2.35;81.22;100848.48;1699972;83;21135;-78
2021/12/23 03:39:15;;;;;;;;;;;;;;;-2.30;81.26;100840.13;1692704;83;20207;-79
2021/12/23 03:41:41;;;;;;;;;;;;;;;-2.25;80.79;100836.91;1688236;83;20466;-83
2021/12/23 03:44:07;;;;;;;;;;;;;;;-2.12;80.61;100835.16;1692099;83;20159;-78
2021/12/23 03:46:37;;;;;;;;;;;;;;;-2.11;80.42;100828.62;1684295;83;20593;-78
2021/12/23 03:49:00;;;;;;;;;;;;;;;-1.99;79.88;100824.70;1695494;83;20152;-80
2021/12/23 03:51:26;;;;;;;;;;;;;;;-1.90;79.66;100833.41;1689204;83;20164;-80
2021/12/23 03:53:51;;;;;;;;;;;;;;;-2.25;79.40;100823.97;1692592;83;20608;-77
2021/12/23 03:56:18;;;;;;;;;;;;;;;-2.05;79.46;100824.51;1694857;83;20465;-76
2021/12/23 03:58:44;;;;;;;;;;;;;;;-1.91;79.28;100821.39;1690342;83;20516;-81
2021/12/23 04:01:10;;;;;;;;;;;;;;;-1.92;79.00;100815.81;1683294;83;21024;-79
2021/12/23 04:03:35;;;;;;;;;;;;;;;-1.81;78.84;100816.23;1686717;83;20251;-79
2021/12/23 04:06:01;;;;;;;;;;;;;;;-1.77;78.35;100810.92;1692127;83;20608;-82
2021/12/23 04:08:26;;;;;;;;;;;;;;;-1.83;77.98;100807.69;1686800;83;20148;-79
2021/12/23 04:10:52;;;;;;;;;;;;;;;-1.78;77.95;100797.61;1692206;83;20132;-78
2021/12/23 04:13:17;;;;;;;;;;;;;;;-1.79;77.88;100795.92;1695167;83;21008;-80
2021/12/23 04:15:43;;;;;;;;;;;;;;;-1.69;77.61;100788.19;1685238;83;20225;-79
2021/12/23 04:18:09;;;;;;;;;;;;;;;-1.88;78.03;100782.45;1685056;83;20140;-78
2021/12/23 04:20:46;;;;;;;;;;;;;;;-1.86;77.88;100778.04;1680689;83;20534;-78
2021/12/23 04:23:03;;;;;;;;;;;;;;;-1.85;77.66;100770.67;1689389;83;20193;-77
2021/12/23 04:25:28;;;;;;;;;;;;;;;-1.69;77.91;100777.83;1696224;83;22034;-77
2021/12/23 04:27:57;;;;;;;;;;;;;;;-1.67;77.52;100770.83;1693250;83;20232;-80
2021/12/23 04:30:22;;;;;;;;;;;;;;;-1.81;76.91;100767.03;1694765;83;20180;-78
2021/12/23 04:32:48;;;;;;;;;;;;;;;-1.70;77.39;100766.61;1695803;83;20154;-77
2021/12/23 04:35:13;;;;;;;;;;;;;;;-1.76;77.16;100760.84;1702273;83;20538;-77
2021/12/23 04:37:39;;;;;;;;;;;;;;;-1.66;77.08;100759.58;1686608;83;21156;-79
2021/12/23 04:40:08;;;;;;;;;;;;;;;-1.69;76.89;100750.17;1668380;85;20273;-77
2021/12/23 04:42:33;;;;;;;;;;;;;;;-1.88;76.55;100750.09;1659549;84;20241;-77
2021/12/23 04:44:59;;;;;;;;;;;;;;;-1.84;76.80;100748.20;1660198;85;20790;-81
2021/12/23 04:47:24;;;;;;;;;;;;;;;-1.81;76.83;100741.15;1667077;85;20156;-84
2021/12/23 04:49:50;;;;;;;;;;;;;;;-2.09;77.42;100732.83;1670454;85;21072;-77
2021/12/23 04:52:15;;;;;;;;;;;;;;;-1.96;77.48;100734.00;1659995;85;20656;-78
2021/12/23 04:54:41;;;;;;;;;;;;;;;-1.90;77.50;100725.99;1671922;85;20179;-80
2021/12/23 04:57:07;;;;;;;;;;;;;;;-1.95;77.16;100717.58;1659791;85;20198;-79
2021/12/23 04:59:32;;;;;;;;;;;;;;;-2.03;77.57;100722.23;1678894;85;20724;-78
2021/12/23 05:01:58;;;;;;;;;;;;;;;-1.87;77.62;100717.27;1670253;84;22513;-77
2021/12/23 05:04:23;;;;;;;;;;;;;;;-1.90;77.01;100719.52;1670647;85;20135;-79
2021/12/23 05:06:49;;;;;;;;;;;;;;;-2.00;76.92;100714.34;1663321;85;20672;-78
2021/12/23 05:09:15;;;;;;;;;;;;;;;-2.07;77.32;100712.90;1674965;85;20297;-78
2021/12/23 05:11:42;;;;;;;;;;;;;;;-2.05;77.29;100712.38;1660510;85;21198;-79
2021/12/23 05:14:08;;;;;;;;;;;;;;;-2.09;77.27;100708.25;1659089;85;20123;-78
2021/12/23 05:16:33;;;;;;;;;;;;;;;-2.24;77.78;100700.63;1666157;85;20837;-78
2021/12/23 05:18:59;;;;;;;;;;;;;;;-2.06;77.91;100701.19;1666402;85;20146;-85
2021/12/23 05:21:24;;;;;;;;;;;;;;;-2.24;77.63;100696.28;1664594;85;20165;-78
2021/12/23 05:23:50;;;;;;;;;;;;;;;-2.13;77.90;100703.62;1661523;85;20143;-78
2021/12/23 05:26:15;;;;;;;;;;;;;;;-2.22;77.55;100689.75;1676675;85;21155;-78
2021/12/23 05:28:41;;;;;;;;;;;;;;;-2.37;77.79;100686.05;1670224;85;20452;-78
2021/12/23 05:31:07;;;;;;;;;;;;;;;-2.24;78.12;100678.17;1673939;85;20250;-78
2021/12/23 05:33:32;;;;;;;;;;;;;;;-2.11;77.89;100677.69;1668444;85;21020;-78
2021/12/23 05:35:58;;;;;;;;;;;;;;;-2.08;77.36;100669.80;1664026;85;20247;-77
2021/12/23 05:38:24;;;;;;;;;;;;;;;-2.21;77.56;100665.12;1681813;83;21022;-79
2021/12/23 05:40:50;;;;;;;;;;;;;;;-2.26;77.58;100663.17;1694944;83;20227;-85
2021/12/23 05:43:15;;;;;;;;;;;;;;;-2.32;77.63;100655.66;1693881;83;20191;-79
2021/12/23 05:45:41;;;;;;;;;;;;;;;-2.44;77.98;100657.44;1688758;83;20514;-82
2021/12/23 05:48:07;;;;;;;;;;;;;;;-2.48;78.25;100660.61;1701029;83;20198;-81
2021/12/23 05:50:32;;;;;;;;;;;;;;;-2.29;78.27;100656.84;1694755;83;20999;-82
2021/12/23 05:52:58;;;;;;;;;;;;;;;-2.28;77.61;100648.18;1696264;83;20463;-79
2021/12/23 05:55:23;;;;;;;;;;;;;;;-2.28;77.60;100653.36;1687966;83;20179;-79
2021/12/23 05:57:49;;;;;;;;;;;;;;;-2.31;77.36;100645.72;1702418;83;20281;-79
2021/12/23 06:00:27;;;;;;;;;;;;;;;-2.31;77.40;100653.48;1686623;83;20257;-79
2021/12/23 06:02:52;;;;;;;;;;;;;;;-2.28;77.70;100645.59;1692673;83;21124;-79
2021/12/23 06:05:18;;;;;;;;;;;;;;;-2.23;77.16;100643.66;1689814;83;20168;-78
2021/12/23 06:07:44;;;;;;;;;;;;;;;-2.31;77.44;100643.13;1693549;83;20137;-80
2021/12/23 06:10:09;;;;;;;;;;;;;;;-2.29;77.19;100653.41;1687875;83;21510;-78
2021/12/23 06:12:35;;;;;;;;;;;;;;;-2.20;77.43;100647.41;1694218;83;20156;-79
2021/12/23 06:15:00;;;;;;;;;;;;;;;-2.13;77.39;100641.98;1685028;83;21165;-78
2021/12/23 06:17:26;;;;;;;;;;;;;;;-2.05;77.20;100643.36;1695647;83;21163;-82
2021/12/23 06:19:51;;;;;;;;;;;;;;;-2.10;76.63;100644.45;1693989;83;20207;-79
2021/12/23 06:22:18;;;;;;;;;;;;;;;-2.19;76.71;100642.64;1693807;83;20235;-78
2021/12/23 06:24:46;;;;;;;;;;;;;;;-2.03;76.73;100636.83;1687607;83;20318;-79
2021/12/23 06:27:12;;;;;;;;;;;;;;;-2.22;76.77;100633.70;1698098;83;20462;-82
2021/12/23 06:29:38;;;;;;;;;;;;;;;-2.13;76.95;100633.77;1700780;83;20289;-81
2021/12/23 06:32:04;;;;;;;;;;;;;;;-2.03;76.84;100626.02;1686423;83;20162;-78
2021/12/23 06:34:29;;;;;;;;;;;;;;;-2.10;76.70;100621.16;1690388;82;21114;-78
2021/12/23 06:36:55;;;;;;;;;;;;;;;-2.06;76.64;100626.61;1687603;83;20241;-79
2021/12/23 06:39:21;;;;;;;;;;;;;;;-2.01;76.51;100629.38;1691729;83;21154;-78
2021/12/23 06:41:46;;;;;;;;;;;;;;;-1.98;75.97;100629.71;1655918;83;20145;-84
2021/12/23 06:44:12;;;;;;;;;;;;;;;-2.01;76.06;100628.08;1680659;83;20202;-80
2021/12/23 06:46:37;;;;;;;;;;;;;;;-2.06;75.85;100632.62;1686296;83;20223;-79
2021/12/23 06:49:03;;;;;;;;;;;;;;;-1.98;76.13;100620.66;1693421;83;20148;-80
2021/12/23 06:51:29;;;;;;;;;;;;;;;-2.15;75.90;100616.64;1683797;83;21094;-78
2021/12/23 06:53:57;;;;;;;;;;;;;;;-2.06;76.24;100613.20;1681550;83;20235;-79
2021/12/23 06:56:22;;;;;;;;;;;;;;;-1.90;76.18;100606.92;1687969;83;20188;-78
2021/12/23 06:58:49;;;;;;;;;;;;;;;-1.94;75.99;100609.27;1685068;83;20148;-79
2021/12/23 07:01:20;;;;;;;;;;;;;;;-1.90;76.08;100611.27;1677542;83;20202;-80
2021/12/23 07:04:05;;;;;;;;;;;;;;;-2.17;76.25;100604.59;1682062;83;20479;-83
2021/12/23 07:06:20;;;;;;;;;;;;;;;-2.09;75.85;100613.80;1677121;83;20207;-80
2021/12/23 07:08:40;;;;;;;;;;;;;;;-2.08;76.07;100623.22;1686563;83;20164;-80
2021/12/23 07:11:06;;;;;;;;;;;;;;;-2.05;76.00;100624.39;1684074;83;20191;-81
2021/12/23 07:13:32;;;;;;;;;;;;;;;-1.95;75.80;100623.58;1696217;83;20199;-81
2021/12/23 07:16:00;;;;;;;;;;;;;;;-1.79;75.98;100616.00;1699244;83;21396;-82
2021/12/23 07:18:25;;;;;;;;;;;;;;;-1.74;75.40;100612.75;1692925;83;20149;-76
2021/12/23 07:20:50;;;;;;;;;;;;;;;-1.67;75.20;100616.30;1693517;83;20212;-79
2021/12/23 07:23:16;;;;;;;;;;;;;;;-1.67;74.95;100607.70;1696795;83;20155;-77
2021/12/23 07:25:41;;;;;;;;;;;;;;;-1.78;74.55;100607.33;1691909;83;21342;-82
2021/12/23 07:28:07;;;;;;;;;;;;;;;-1.72;74.71;100596.25;1697832;83;21221;-79
2021/12/23 07:30:33;;;;;;;;;;;;;;;-1.59;74.87;100584.89;1698712;83;20461;-79
2021/12/23 07:33:00;;;;;;;;;;;;;;;-1.55;74.55;100584.33;1680554;83;20202;-79
2021/12/23 07:35:25;;;;;;;;;;;;;;;-1.48;74.39;100585.25;1690837;83;20193;-77
2021/12/23 07:37:51;;;;;;;;;;;;;;;-1.42;74.31;100575.55;1693823;83;20203;-82
2021/12/23 07:40:17;;;;;;;;;;;;;;;-1.58;73.63;100568.45;1654278;86;21260;-83
2021/12/23 07:42:55;;;;;;;;;;;;;;;-1.56;73.71;100573.10;1649725;85;20217;-84
2021/12/23 07:45:22;;;;;;;;;;;;;;;-1.39;74.06;100574.11;1657596;86;20171;-78
2021/12/23 07:47:48;;;;;;;;;;;;;;;-1.30;73.93;100564.62;1650464;85;20978;-82
2021/12/23 07:50:13;;;;;;;;;;;;;;;-1.33;73.31;100566.06;1657168;85;20139;-81
2021/12/23 07:52:39;;;;;;;;;;;;;;;-1.51;73.30;100567.28;1654213;86;22010;-82
2021/12/23 07:55:05;;;;;;;;;;;;;;;-1.43;73.67;100559.61;1655568;86;20145;-78
2021/12/23 07:57:31;;;;;;;;;;;;;;;-1.49;73.58;100560.27;1653003;86;20131;-84
2021/12/23 07:59:58;;;;;;;;;;;;;;;-1.37;73.58;100558.03;1661452;86;20138;-84
2021/12/23 08:02:24;;;;;;;;;;;;;;;-1.29;73.59;100554.63;1654147;85;20177;-83
2021/12/23 08:04:51;;;;;;;;;;;;;;;-1.50;73.41;100554.70;1655428;85;21081;-84
2021/12/23 08:07:17;;;;;;;;;;;;;;;-1.46;73.45;100548.48;1657412;86;20172;-87
2021/12/23 08:09:42;;;;;;;;;;;;;;;-1.35;73.57;100545.84;1656607;86;20470;-85
2021/12/23 08:12:09;;;;;;;;;;;;;;;-1.27;73.17;100538.11;1656232;86;20126;-85
2021/12/23 08:14:34;;;;;;;;;;;;;;;-1.24;73.40;100538.44;1654839;85;20209;-88
2021/12/23 08:17:00;;;;;;;;;;;;;;;-1.16;73.18;100527.25;1654494;86;21962;-82
2021/12/23 08:19:25;;;;;;;;;;;;;;;-1.38;72.69;100531.30;1653111;85;20146;-81
2021/12/23 08:21:51;;;;;;;;;;;;;;;-1.41;73.13;100527.98;1655058;85;20178;-83
2021/12/23 08:24:16;;;;;;;;;;;;;;;-1.39;73.03;100521.01;1656013;85;20563;-83
2021/12/23 08:26:50;;;;;;;;;;;;;;;-1.31;73.27;100522.31;1656561;85;20151;-81
2021/12/23 08:29:10;;;;;;;;;;;;;;;-1.25;73.13;100523.80;1653757;86;20138;-87
2021/12/23 08:31:35;;;;;;;;;;;;;;;-1.29;73.14;100521.81;1658549;85;20788;-83
2021/12/23 08:34:01;;;;;;;;;;;;;;;-1.39;72.83;100511.47;1652072;86;20606;-83
2021/12/23 08:36:27;;;;;;;;;;;;;;;-1.31;72.87;100507.23;1650085;86;20106;-82
2021/12/23 08:38:52;;;;;;;;;;;;;;;-1.32;73.09;100501.66;1661149;83;20229;-85
2021/12/23 08:41:18;;;;;;;;;;;;;;;-1.23;73.14;100503.82;1685941;83;21070;-83
2021/12/23 08:43:48;;;;;;;;;;;;;;;-1.30;73.06;100502.45;1683064;83;20211;-82
2021/12/23 08:46:13;;;;;;;;;;;;;;;-1.23;72.85;100495.22;1682323;83;20159;-78
2021/12/23 08:48:39;;;;;;;;;;;;;;;-1.16;72.51;100496.16;1683621;83;20531;-87
2021/12/23 08:51:05;;;;;;;;;;;;;;;-1.30;72.75;100481.72;1696267;83;20176;-78
2021/12/23 08:53:30;;;;;;;;;;;;;;;-1.15;72.89;100478.41;1692421;83;21075;-78
2021/12/23 08:55:56;;;;;;;;;;;;;;;-1.20;72.59;100477.77;1683958;83;20150;-80
2021/12/23 08:58:21;;;;;;;;;;;;;;;-1.36;72.35;100478.13;1683699;83;20464;-79
2021/12/23 09:00:47;;;;;;;;;;;;;;;-1.42;73.03;100468.88;1684524;83;21014;-79
2021/12/23 09:03:12;;;;;;;;;;;;;;;-1.48;73.15;100472.58;1683007;83;20135;-79
2021/12/23 09:05:39;;;;;;;;;;;;;;;-1.49;73.41;100455.81;1683269;83;22026;-82
2021/12/23 09:08:05;;;;;;;;;;;;;;;-1.45;73.45;100462.08;1688600;83;20604;-80
2021/12/23 09:10:31;;;;;;;;;;;;;;;-1.22;73.28;100464.05;1657841;83;20133;-80
2021/12/23 09:12:57;;;;;;;;;;;;;;;-1.38;73.51;100463.09;1687144;83;20199;-79
2021/12/23 09:15:22;;;;;;;;;;;;;;;-1.29;73.22;100454.88;1682650;83;20486;-80
2021/12/23 09:17:48;;;;;;;;;;;;;;;-1.25;73.03;100460.31;1683023;83;21149;-80
2021/12/23 09:20:15;;;;;;;;;;;;;;;-1.27;72.81;100451.78;1689602;83;20163;-80
2021/12/23 09:22:40;;;;;;;;;;;;;;;-1.11;72.79;100448.83;1687792;83;21105;-80
2021/12/23 09:25:11;;;;;;;;;;;;;;;-1.13;72.77;100442.88;1681563;83;21027;-82
2021/12/23 09:27:41;;;;;;;;;;;;;;;-0.97;72.61;100436.95;1682911;83;21084;-78
2021/12/23 09:32:53;;;;;;;;;;;;;;;-0.93;72.58;100430.72;1680585;83;20185;-78
2021/12/23 09:35:21;;;;;;;;;;;;;;;-0.88;72.09;100424.84;1685372;83;20256;-78
2021/12/23 09:37:46;;;;;;;;;;;;;;;-0.84;71.91;100419.89;1673384;83;20566;-77
2021/12/23 09:40:12;;;;;;;;;;;;;;;-0.77;71.70;100417.36;1659794;83;20257;-79
2021/12/23 09:42:38;;;;;;;;;;;;;;;-0.70;71.45;100409.27;1652440;85;20992;-79
2021/12/23 09:45:06;;;;;;;;;;;;;;;-0.83;71.19;100409.05;1628537;86;20209;-79
2021/12/23 09:47:34;;;;;;;;;;;;;;;-0.71;71.51;100407.14;1653460;85;20493;-79
2021/12/23 09:50:01;;;;;;;;;;;;;;;-0.70;71.01;100401.48;1652725;85;20471;-78
2021/12/23 09:52:29;;;;;;;;;;;;;;;-0.65;71.13;100398.19;1649967;85;20880;-78
2021/12/23 09:54:55;;;;;;;;;;;;;;;-0.61;71.10;100395.83;1652395;85;21096;-78
2021/12/23 09:57:21;;;;;;;;;;;;;;;-0.57;70.68;100396.06;1652042;85;20178;-79
2021/12/23 09:59:46;;;;;;;;;;;;;;;-0.63;70.71;100398.97;1651932;85;20799;-77
2021/12/23 10:02:12;;;;;;;;;;;;;;;-0.72;70.98;100395.91;1652833;85;20137;-78
2021/12/23 10:04:37;;;;;;;;;;;;;;;-0.74;71.16;100397.75;1652205;86;20165;-79
2021/12/23 10:07:03;;;;;;;;;;;;;;;-0.68;71.09;100400.94;1653415;85;21156;-77
2021/12/23 10:09:46;;;;;;;;;;;;;;;-0.53;71.11;100388.48;1651698;85;20186;-79
2021/12/23 10:30:10;;;;;;;;;;;;;;;-0.41;70.36;100355.42;1653925;86;20491;-76
2021/12/23 10:31:37;;;;;;;;;;;;;;;-0.50;70.94;100353.31;1651484;86;20146;-76
2021/12/23 10:37:13;;;;;;;;;;;;;;;-0.63;70.99;100344.52;1656446;86;20124;-76
2021/12/23 10:39:23;;;;;;;;;;;;;;;-0.29;70.55;100337.55;1635167;85;20219;-80
2021/12/23 10:41:49;;;;;;;;;;;;;;;-0.13;70.84;100325.41;1677337;83;20208;-78
2021/12/23 10:44:14;;;;;;;;;;;;;;;-0.01;70.63;100314.36;1689297;83;20148;-76
2021/12/23 10:46:41;;;;;;;;;;;;;;;0.13;70.28;100316.66;1646842;85;21173;-76
2021/12/23 10:52:00;;;;;;;;;;;;;;;0.21;69.44;100308.45;1689470;83;20146;-77
2021/12/23 10:58:00;;;;;;;;;;;;;;;0.20;69.25;100305.46;1686425;84;20153;-75
2021/12/23 10:59:36;;;;;;;;;;;;;;;0.13;69.68;100282.44;1673794;85;20709;-77
2021/12/23 11:02:26;;;;;;;;;;;;;;;0.09;69.44;100276.20;1681810;85;20949;-80
2021/12/23 11:05:04;;;;;;;;;;;;;;;0.20;69.40;100269.93;1670617;85;20113;-76
2021/12/23 11:07:27;;;;;;;;;;;;;;;0.18;69.22;100260.10;1680037;85;20200;-76
2021/12/23 11:30:04;;;;;;;;;;;;;;;0.15;69.10;100195.36;1673949;85;20172;-76
2021/12/23 11:42:15;;;;;;;;;;;;;;;0.49;68.42;100167.42;1682604;83;20650;-77
2021/12/23 11:44:33;;;;;;;;;;;;;;;0.39;68.28;100159.78;1690463;83;20149;-77
2021/12/23 11:47:03;;;;;;;;;;;;;;;0.22;68.19;100154.28;1690666;83;20195;-78
2021/12/23 11:49:26;;;;;;;;;;;;;;;0.34;68.66;100145.33;1691678;83;20124;-77
2021/12/23 11:51:55;;;;;;;;;;;;;;;0.44;68.41;100141.71;1693952;83;21974;-76
2021/12/23 11:54:33;;;;;;;;;;;;;;;0.55;68.23;100135.87;1689895;83;20227;-78
2021/12/23 11:57:07;;;;;;;;;;;;;;;0.58;68.37;100126.59;1690119;83;20224;-78
2021/12/23 11:59:36;;;;;;;;;;;;;;;0.61;68.24;100126.41;1687706;83;20203;-78
2021/12/23 12:02:03;;;;;;;;;;;;;;;0.58;68.13;100113.60;1694983;83;20142;-76
2021/12/23 12:04:35;;;;;;;;;;;;;;;0.59;67.91;100106.19;1682598;83;21115;-77
2021/12/23 12:07:00;;;;;;;;;;;;;;;0.70;68.18;100098.56;1699657;83;20226;-76
2021/12/23 12:09:30;;;;;;;;;;;;;;;0.76;67.90;100097.80;1699453;83;20231;-77
2021/12/23 12:12:06;;;;;;;;;;;;;;;0.86;67.83;100087.22;1687592;83;20673;-77
2021/12/23 12:14:43;;;;;;;;;;;;;;;0.94;67.36;100086.27;1710833;83;20557;-78
2021/12/23 12:17:32;;;;;;;;;;;;;;;0.95;67.45;100072.34;1703765;83;21081;-77
2021/12/23 12:20:00;;;;;;;;;;;;;;;1.00;66.99;100067.68;1699780;83;20196;-77
2021/12/23 12:22:46;;;;;;;;;;;;;;;1.04;67.12;100060.52;1692016;83;20878;-77
2021/12/23 12:25:28;;;;;;;;;;;;;;;1.14;67.07;100063.38;1700029;83;20178;-77
2021/12/23 12:28:00;;;;;;;;;;;;;;;1.05;66.49;100057.81;1696674;83;20188;-77
2021/12/23 12:30:34;;;;;;;;;;;;;;;1.18;66.95;100051.83;1691947;83;21154;-76
2021/12/23 12:33:03;;;;;;;;;;;;;;;1.19;66.64;100050.91;1704392;83;20232;-78
2021/12/23 12:35:29;;;;;;;;;;;;;;;1.30;66.89;100045.84;1696526;83;20551;-77
2021/12/23 12:37:55;;;;;;;;;;;;;;;1.31;66.36;100037.59;1702054;83;20203;-77
2021/12/23 12:40:20;;;;;;;;;;;;;;;1.17;65.97;100034.58;1659123;83;20180;-78
2021/12/23 12:42:48;;;;;;;;;;;;;;;1.25;66.50;100029.23;1668768;83;23565;-79
2021/12/23 12:45:23;;;;;;;;;;;;;;;1.31;66.27;100026.70;1694492;83;20608;-78
2021/12/23 12:47:49;;;;;;;;;;;;;;;1.37;66.13;100021.11;1688401;83;20235;-79
2021/12/23 12:50:13;;;;;;;;;;;;;;;1.33;65.77;100020.92;1678712;83;20136;-78
2021/12/23 12:52:41;;;;;;;;;;;;;;;1.33;65.89;100009.22;1692983;83;20203;-78
2021/12/23 12:55:10;;;;;;;;;;;;;;;1.34;65.73;100020.00;1697495;83;21124;-80
2021/12/23 12:57:39;;;;;;;;;;;;;;;1.45;65.95;100004.17;1690510;83;20577;-78
2021/12/23 13:00:24;;;;;;;;;;;;;;;1.32;65.84;100002.38;1685798;83;20159;-76
2021/12/23 13:02:59;;;;;;;;;;;;;;;1.39;66.10;99996.29;1677520;83;20203;-78
2021/12/23 13:05:26;;;;;;;;;;;;;;;1.47;65.62;99989.28;1694102;83;20216;-77
2021/12/23 13:07:52;;;;;;;;;;;;;;;1.45;65.83;99985.48;1698605;83;21076;-76
2021/12/23 13:10:21;;;;;;;;;;;;;;;1.47;65.26;99982.77;1688138;83;20235;-79
2021/12/23 13:12:54;;;;;;;;;;;;;;;1.43;65.70;99984.28;1691482;83;20230;-78
2021/12/23 13:15:26;;;;;;;;;;;;;;;1.45;65.73;99978.15;1683281;83;20216;-77
2021/12/23 13:17:58;;;;;;;;;;;;;;;1.58;65.85;99985.48;1687436;83;20180;-78
2021/12/23 13:20:40;;;;;;;;;;;;;;;1.59;65.69;99980.66;1693517;83;21004;-79
2021/12/23 13:23:12;;;;;;;;;;;;;;;1.50;65.64;99975.59;1684989;83;20436;-77
2021/12/23 13:25:43;;;;;;;;;;;;;;;1.45;65.77;99971.16;1689907;83;20163;-79
2021/12/23 13:28:09;;;;;;;;;;;;;;;1.48;65.69;99966.23;1689863;83;20133;-79
2021/12/23 13:30:39;;;;;;;;;;;;;;;1.54;65.88;99961.89;1694851;83;20186;-78
2021/12/23 13:33:05;;;;;;;;;;;;;;;1.40;65.74;99963.67;1694020;83;21255;-78
2021/12/23 13:35:31;;;;;;;;;;;;;;;1.41;65.98;99968.39;1688831;83;20509;-78
2021/12/23 13:37:57;;;;;;;;;;;;;;;1.47;66.15;99960.66;1698461;83;20160;-78